Time;durP1;ratioP1;P1;durP2;ratioP2;P2;SDS_P1;SDS_P2;PMS_P1;PMS_P2;Temp;Humidity;BMP_temperature;BMP_pressure;BME280_temperature;BME280_humidity;BME280_pressure;Samples;Min_cycle;Max_cycle;Signal;HPM_P1;HPM_P2
2021/09/08 00:00:01;;;;;;;24.00;11.55;;;;;;;11.33;62.09;101673.67;1642702;86;20924;-79
2021/09/08 00:02:27;;;;;;;19.65;11.73;;;;;;;11.30;62.10;101667.20;1663828;84;20967;-78
2021/09/08 00:04:54;;;;;;;15.75;10.75;;;;;;;11.26;62.20;101665.91;1662601;85;20936;-78
2021/09/08 00:07:22;;;;;;;15.78;10.43;;;;;;;11.24;62.22;101669.37;1663224;84;20967;-79
2021/09/08 00:09:48;;;;;;;15.65;10.82;;;;;;;11.22;62.31;101669.80;1654717;84;20932;-79
2021/09/08 00:12:14;;;;;;;16.07;10.82;;;;;;;11.20;62.33;101669.80;1664014;85;20952;-79
2021/09/08 00:14:47;;;;;;;15.20;10.93;;;;;;;11.18;62.39;101666.78;1663174;85;20948;-79
2021/09/08 00:17:13;;;;;;;14.75;10.63;;;;;;;11.15;62.45;101662.91;1663077;84;24537;-79
2021/09/08 00:19:40;;;;;;;14.80;11.22;;;;;;;11.14;62.48;101669.81;1661972;85;21633;-79
2021/09/08 00:22:06;;;;;;;17.00;10.65;;;;;;;11.11;62.50;101668.95;1661420;84;21271;-79
2021/09/08 00:24:33;;;;;;;17.20;12.25;;;;;;;11.07;62.51;101673.27;1661598;85;21034;-79
2021/09/08 00:27:06;;;;;;;12.78;9.80;;;;;;;11.04;62.54;101673.27;1661509;85;21102;-79
2021/09/08 00:29:35;;;;;;;;;;;;;;;11.02;62.66;101675.43;1664604;85;21059;-79
2021/09/08 00:32:03;;;;;;;15.93;10.40;;;;;;;11.01;63.23;101673.70;1674353;84;20124;-79
2021/09/08 00:34:30;;;;;;;17.42;11.60;;;;;;;10.98;62.81;101675.86;1695560;84;20985;-79
2021/09/08 00:36:56;;;;;;;17.65;10.78;;;;;;;10.98;62.79;101678.45;1695378;84;21024;-79
2021/09/08 00:39:22;;;;;;;16.15;11.03;;;;;;;10.97;62.82;101677.16;1669158;84;21054;-79
2021/09/08 00:41:50;;;;;;;13.50;9.55;;;;;;;10.95;62.86;101678.02;1661739;85;21107;-79
2021/09/08 00:44:17;;;;;;;15.90;9.98;;;;;;;10.92;62.90;101680.61;1662405;85;21484;-79
2021/09/08 00:46:44;;;;;;;13.93;10.43;;;;;;;10.89;62.99;101687.55;1653476;85;22127;-79
2021/09/08 00:49:12;;;;;;;13.95;8.48;;;;;;;10.90;63.06;101678.92;1675513;84;20939;-79
2021/09/08 00:51:40;;;;;;;14.65;9.78;;;;;;;10.88;63.01;101678.05;1662274;85;21145;-79
2021/09/08 00:54:22;;;;;;;16.37;10.05;;;;;;;10.85;63.07;101678.92;1661669;85;21091;-79
2021/09/08 00:56:53;;;;;;;15.65;9.95;;;;;;;10.83;63.09;101669.43;1657950;84;21055;-79
2021/09/08 00:59:20;;;;;;;13.20;9.58;;;;;;;10.80;63.15;101670.30;1660141;85;21039;-79
2021/09/08 01:01:47;;;;;;;12.58;9.68;;;;;;;10.78;63.14;101665.98;1662279;85;20999;-79
2021/09/08 01:04:14;;;;;;;14.50;9.93;;;;;;;10.75;63.17;101667.27;1646028;84;21113;-78
2021/09/08 01:06:41;;;;;;;14.53;9.90;;;;;;;10.72;63.21;101660.37;1676121;84;21075;-78
2021/09/08 01:09:08;;;;;;;12.15;9.28;;;;;;;10.69;63.26;101657.78;1661584;85;21118;-78
2021/09/08 01:11:35;;;;;;;16.27;10.48;;;;;;;10.66;63.31;101662.09;1661597;84;21400;-78
2021/09/08 01:14:02;;;;;;;14.05;10.03;;;;;;;10.63;63.36;101658.21;1666551;85;21074;-78
2021/09/08 01:16:28;;;;;;;12.95;9.20;;;;;;;10.61;63.41;101661.66;1656754;84;21082;-78
2021/09/08 01:18:55;;;;;;;13.18;9.13;;;;;;;10.59;63.47;101661.23;1661791;85;21279;-78
2021/09/08 01:21:22;;;;;;;12.88;9.35;;;;;;;10.55;63.49;101664.24;1661645;84;21103;-78
2021/09/08 01:23:48;;;;;;;10.95;8.33;;;;;;;10.55;63.61;101665.97;1660427;85;21405;-78
2021/09/08 01:26:14;;;;;;;8.85;7.80;;;;;;;10.55;63.68;101666.83;1661195;84;21043;-78
2021/09/08 01:28:41;;;;;;;13.45;9.10;;;;;;;10.53;63.69;101662.09;1660888;84;21094;-78
2021/09/08 01:31:07;;;;;;;11.53;7.90;;;;;;;10.53;63.76;101659.50;1662095;85;21090;-78
2021/09/08 01:33:37;;;;;;;9.93;7.62;;;;;;;10.51;63.72;101657.77;1660325;84;21135;-78
2021/09/08 01:36:04;;;;;;;10.28;7.37;;;;;;;10.48;63.78;101662.51;1667228;84;21052;-78
2021/09/08 01:38:30;;;;;;;;;;;;;;;10.46;63.79;101654.31;1684883;84;21475;-78
2021/09/08 01:40:56;;;;;;;11.15;7.90;;;;;;;10.42;64.26;101662.50;1684452;85;20222;-78
2021/09/08 01:43:26;;;;;;;11.88;7.28;;;;;;;10.40;63.87;101658.22;1708682;83;21032;-78
2021/09/08 01:45:53;;;;;;;12.60;8.03;;;;;;;10.37;63.84;101654.34;1706637;82;20910;-78
2021/09/08 01:48:20;;;;;;;9.85;7.80;;;;;;;10.34;63.88;101652.61;1726726;82;20866;-78
2021/09/08 01:50:48;;;;;;;9.73;8.13;;;;;;;10.30;63.96;101652.17;1711152;82;20915;-78
2021/09/08 01:53:16;;;;;;;10.48;8.10;;;;;;;10.28;63.99;101653.45;1709790;83;20905;-78
2021/09/08 01:55:42;;;;;;;10.05;8.03;;;;;;;10.25;64.05;101657.33;1709961;83;20901;-78
2021/09/08 01:58:09;;;;;;;11.63;7.97;;;;;;;10.25;64.09;101660.34;1710890;83;20962;-78
2021/09/08 02:00:43;;;;;;;7.78;7.00;;;;;;;10.23;64.20;101660.34;1710839;83;20938;-78
2021/09/08 02:03:09;;;;;;;;;;;;;;;10.23;64.21;101657.75;1711912;82;20874;-78
2021/09/08 02:05:36;;;;;;;10.53;7.67;;;;;;;10.20;64.69;101661.63;1710907;83;20115;-78
2021/09/08 02:08:03;;;;;;;10.23;7.53;;;;;;;10.18;64.24;101663.31;1710988;83;20937;-78
2021/09/08 02:10:29;;;;;;;9.63;8.18;;;;;;;10.16;64.32;101665.03;1710184;83;20870;-78
2021/09/08 02:12:56;;;;;;;8.58;7.58;;;;;;;10.14;64.34;101666.75;1710346;82;21546;-78
2021/09/08 02:15:22;;;;;;;10.60;7.55;;;;;;;10.14;64.38;101672.34;1710991;83;20903;-78
2021/09/08 02:17:49;;;;;;;11.93;7.83;;;;;;;10.12;64.37;101670.19;1710816;83;20864;-78
2021/09/08 02:20:15;;;;;;;10.78;7.60;;;;;;;10.10;64.42;101674.05;1712990;82;21032;-78
2021/09/08 02:22:44;;;;;;;9.88;7.50;;;;;;;10.09;64.46;101668.45;1708295;83;20997;-78
2021/09/08 02:25:12;;;;;;;10.00;7.70;;;;;;;10.08;64.46;101665.44;1702719;83;21504;-78
2021/09/08 02:27:38;;;;;;;16.67;8.58;;;;;;;10.07;64.55;101669.30;1682998;84;21080;-78
2021/09/08 02:30:06;;;;;;;8.00;6.72;;;;;;;10.06;64.56;101669.73;1708954;83;21071;-78
2021/09/08 02:32:33;;;;;;;10.70;7.25;;;;;;;10.04;64.60;101666.28;1710496;83;20898;-78
2021/09/08 02:34:59;;;;;;;8.75;7.85;;;;;;;10.02;64.61;101668.42;1710162;82;20933;-78
2021/09/08 02:37:25;;;;;;;9.10;7.70;;;;;;;10.01;64.70;101664.98;1716483;83;20925;-78
2021/09/08 02:39:51;;;;;;;10.25;7.35;;;;;;;10.01;64.75;101664.12;1705628;83;20901;-78
2021/09/08 02:42:18;;;;;;;10.90;7.12;;;;;;;10.01;64.79;101658.52;1718023;83;20937;-78
2021/09/08 02:44:44;;;;;;;10.35;7.97;;;;;;;9.99;64.81;101661.53;1717767;83;20902;-78
2021/09/08 02:47:12;;;;;;;13.05;7.05;;;;;;;9.96;64.80;101660.23;1717126;82;20958;-78
2021/09/08 02:49:39;;;;;;;8.73;7.15;;;;;;;9.95;64.84;101665.82;1716181;82;21528;-78
2021/09/08 02:52:06;;;;;;;9.48;7.33;;;;;;;9.93;64.85;101661.51;1716262;82;21611;-78
2021/09/08 02:54:32;;;;;;;11.43;7.37;;;;;;;9.91;64.88;101660.21;1710487;82;21064;-78
2021/09/08 02:57:00;;;;;;;11.83;7.33;;;;;;;9.90;64.93;101668.81;1720405;82;21512;-78
2021/09/08 02:59:27;;;;;;;7.45;6.60;;;;;;;9.87;64.91;101667.55;1715997;82;21648;-78
2021/09/08 03:01:54;;;;;;;9.45;7.25;;;;;;;9.84;64.92;101670.55;1716641;83;21519;-78
2021/09/08 03:04:20;;;;;;;10.00;7.12;;;;;;;9.80;64.92;101661.05;1715331;83;21441;-78
2021/09/08 03:06:48;;;;;;;8.85;7.53;;;;;;;9.77;64.95;101661.05;1715930;83;21084;-78
2021/09/08 03:09:16;;;;;;;8.90;7.08;;;;;;;9.73;65.07;101657.59;1688028;84;21052;-78
2021/09/08 03:11:42;;;;;;;7.87;7.08;;;;;;;9.71;65.06;101656.72;1704905;82;20976;-78
2021/09/08 03:14:09;;;;;;;12.63;7.08;;;;;;;9.70;65.09;101660.58;1716357;83;21433;-78
2021/09/08 03:16:35;;;;;;;9.40;7.47;;;;;;;9.67;65.15;101662.72;1716664;83;20980;-78
2021/09/08 03:19:02;;;;;;;9.73;7.00;;;;;;;9.66;65.19;101664.01;1717124;83;21524;-79
2021/09/08 03:21:29;;;;;;;8.13;7.00;;;;;;;9.61;65.20;101660.98;1716047;82;21531;-79
2021/09/08 03:23:56;;;;;;;7.25;6.53;;;;;;;9.60;65.23;101664.84;1716481;83;21370;-79
2021/09/08 03:26:22;;;;;;;9.40;7.25;;;;;;;9.57;65.26;101659.66;1716022;83;21040;-79
2021/09/08 03:28:52;;;;;;;8.60;7.33;;;;;;;9.55;65.30;101660.95;1715842;83;21480;-79
2021/09/08 03:31:18;;;;;;;8.93;7.00;;;;;;;9.54;65.32;101662.23;1716469;82;21051;-79
2021/09/08 03:33:44;;;;;;;9.75;7.70;;;;;;;9.54;65.39;101660.94;1715597;82;21390;-79
2021/09/08 03:36:12;;;;;;;11.45;7.55;;;;;;;9.50;65.42;101663.92;1714721;83;21509;-79
2021/09/08 03:38:38;;;;;;;8.65;7.08;;;;;;;9.48;65.45;101656.60;1715202;83;21512;-79
2021/09/08 03:41:05;;;;;;;7.87;6.37;;;;;;;9.50;65.47;101663.06;1713879;82;20945;-79
2021/09/08 03:43:31;;;;;;;8.45;6.62;;;;;;;9.48;65.49;101652.73;1711922;83;21295;-79
2021/09/08 03:45:58;;;;;;;7.50;6.65;;;;;;;9.47;65.55;101660.47;1718452;83;21462;-79
2021/09/08 03:48:24;;;;;;;11.20;7.08;;;;;;;9.46;65.52;101657.02;1711245;82;21358;-79
2021/09/08 03:50:51;;;;;;;8.80;7.35;;;;;;;9.42;65.50;101650.11;1718874;83;20922;-79
2021/09/08 03:53:17;;;;;;;10.90;7.95;;;;;;;9.39;65.53;101655.69;1718084;82;21482;-79
2021/09/08 03:55:43;;;;;;;11.38;6.47;;;;;;;9.35;65.61;101659.14;1717837;83;20885;-79
2021/09/08 03:58:13;;;;;;;7.70;6.75;;;;;;;9.33;65.66;101662.14;1720194;82;21376;-79
2021/09/08 04:00:39;;;;;;;7.80;6.78;;;;;;;9.30;65.69;101657.82;1718470;82;21445;-79
2021/09/08 04:03:06;;;;;;;11.68;7.67;;;;;;;9.29;65.74;101653.52;1717521;82;21354;-78
2021/09/08 04:05:32;;;;;;;10.98;6.97;;;;;;;9.26;65.72;101651.78;1714917;82;20850;-78
2021/09/08 04:07:58;;;;;;;12.47;7.37;;;;;;;9.23;65.72;101650.47;1718167;82;21474;-79
2021/09/08 04:10:24;;;;;;;8.40;6.85;;;;;;;9.21;65.76;101652.17;1718867;82;20940;-79
2021/09/08 04:12:52;;;;;;;9.28;7.42;;;;;;;9.21;65.85;101651.31;1717082;82;21398;-82
2021/09/08 04:15:24;;;;;;;11.22;7.67;;;;;;;9.23;65.89;101654.77;1712407;81;21449;-79
2021/09/08 04:17:51;;;;;;;9.93;6.83;;;;;;;9.20;65.93;101651.73;1717536;83;21387;-80
2021/09/08 04:20:17;;;;;;;10.93;8.08;;;;;;;9.20;65.92;101649.58;1694488;83;21374;-79
2021/09/08 04:22:53;;;;;;;9.87;7.60;;;;;;;9.18;65.99;101649.58;1716856;82;21467;-80
2021/09/08 04:25:19;;;;;;;13.55;9.95;;;;;;;9.18;66.04;101646.13;1721359;82;21766;-79
2021/09/08 04:27:46;;;;;;;18.57;8.80;;;;;;;9.16;66.03;101648.70;1717885;82;21438;-79
2021/09/08 04:30:13;;;;;;;12.68;8.40;;;;;;;9.14;66.03;101642.66;1721661;82;20903;-79
2021/09/08 04:32:40;;;;;;;10.58;8.30;;;;;;;9.14;66.09;101649.12;1718811;82;21401;-79
2021/09/08 04:35:07;;;;;;;;;;;;;;;9.15;66.14;101649.98;1721539;83;21406;-79
2021/09/08 04:37:36;;;;;;;10.10;8.18;;;;;;;9.15;66.60;101640.95;1719217;82;20102;-80
2021/09/08 04:40:05;;;;;;;14.23;8.65;;;;;;;9.15;66.23;101644.39;1720180;82;21418;-79
2021/09/08 04:42:31;;;;;;;13.03;8.90;;;;;;;9.16;66.24;101642.25;1725529;81;20863;-80
2021/09/08 04:44:57;;;;;;;9.93;8.63;;;;;;;9.18;66.30;101645.70;1726492;80;20942;-80
2021/09/08 04:47:24;;;;;;;11.30;7.78;;;;;;;9.19;66.29;101648.72;1720840;81;21315;-80
2021/09/08 04:49:50;;;;;;;11.05;9.20;;;;;;;9.21;66.27;101647.44;1718977;82;20926;-80
2021/09/08 04:52:18;;;;;;;11.75;8.43;;;;;;;9.20;66.30;101647.87;1718963;82;21019;-80
2021/09/08 04:54:44;;;;;;;;;;;;;;;9.23;66.41;101642.73;1718645;81;20968;-80
2021/09/08 04:57:10;;;;;;;12.98;7.28;;;;;;;9.26;66.78;101653.06;1718482;82;20268;-80
2021/09/08 04:59:37;;;;;;;11.97;8.50;;;;;;;9.26;66.44;101654.36;1715622;82;21045;-80
2021/09/08 05:02:03;;;;;;;12.23;8.45;;;;;;;9.28;66.50;101651.78;1716022;81;21505;-79
2021/09/08 05:04:30;;;;;;;11.48;8.95;;;;;;;9.33;66.57;101653.97;1714635;82;20953;-80
2021/09/08 05:06:58;;;;;;;13.03;8.38;;;;;;;9.36;66.56;101653.13;1710167;82;20988;-80
2021/09/08 05:09:24;;;;;;;13.40;8.88;;;;;;;9.40;66.56;101657.42;1705284;81;423550;-80
2021/09/08 05:11:50;;;;;;;13.05;8.30;;;;;;;9.43;66.60;101657.44;1723592;81;21123;-80
2021/09/08 05:14:35;;;;;;;11.50;9.50;;;;;;;9.48;66.63;101660.48;1716539;82;21060;-80
2021/09/08 05:17:05;;;;;;;19.12;12.03;;;;;;;9.54;66.67;101660.51;1723680;82;21063;-80
2021/09/08 05:19:32;;;;;;;20.23;13.15;;;;;;;9.63;66.74;101656.68;1695356;82;21099;-80
2021/09/08 05:22:04;;;;;;;42.78;22.98;;;;;;;9.73;66.81;101656.72;1720150;82;21026;-80
2021/09/08 05:24:30;;;;;;;29.63;19.42;;;;;;;9.83;66.85;101655.91;1720449;81;22178;-80
2021/09/08 05:26:57;;;;;;;32.65;20.50;;;;;;;9.93;66.92;101661.51;1714514;82;22019;-80
2021/09/08 05:29:23;;;;;;;30.32;17.50;;;;;;;10.06;67.00;101663.27;1721273;82;21049;-80
2021/09/08 05:31:49;;;;;;;28.42;15.55;;;;;;;10.18;67.00;101662.02;1681682;83;21088;-80
2021/09/08 05:34:19;;;;;;;28.23;12.05;;;;;;;10.27;67.00;101662.50;1664660;84;21065;-80
2021/09/08 05:36:47;;;;;;;23.85;12.73;;;;;;;10.37;67.03;101663.38;1663012;84;21070;-80
2021/09/08 05:39:14;;;;;;;16.75;12.63;;;;;;;10.49;67.15;101666.81;1663772;84;21072;-80
2021/09/08 05:41:40;;;;;;;23.27;12.82;;;;;;;10.60;67.10;101656.48;1661053;85;25268;-80
2021/09/08 05:44:07;;;;;;;20.32;13.58;;;;;;;10.70;67.17;101652.18;1653442;85;27383;-80
2021/09/08 05:46:33;;;;;;;23.40;14.38;;;;;;;10.83;67.21;101658.65;1660568;85;21065;-80
2021/09/08 05:49:00;;;;;;;28.15;14.28;;;;;;;10.96;67.16;101651.71;1662296;84;21058;-80
2021/09/08 05:51:27;;;;;;;24.23;13.75;;;;;;;11.08;67.25;101650.84;1656107;85;21417;-80
2021/09/08 05:53:53;;;;;;;;;;;;;;;11.22;67.28;101649.09;1663493;85;21102;-80
2021/09/08 05:56:20;;;;;;;25.17;12.30;;;;;;;11.36;67.79;101639.56;1656678;84;20341;-80
2021/09/08 05:58:46;;;;;;;25.80;14.83;;;;;;;11.53;67.39;101648.55;1666962;84;21080;-80
2021/09/08 06:01:13;;;;;;;26.37;14.18;;;;;;;11.71;67.41;101647.63;1664257;84;21138;-80
2021/09/08 06:03:39;;;;;;;24.10;14.65;;;;;;;11.89;67.43;101647.14;1665580;84;21134;-79
2021/09/08 06:06:05;;;;;;;30.30;14.60;;;;;;;12.09;67.46;101643.55;1662168;85;21066;-79
2021/09/08 06:08:32;;;;;;;24.53;13.93;;;;;;;12.29;67.43;101649.48;1661246;84;21078;-79
2021/09/08 06:10:58;;;;;;;20.15;14.23;;;;;;;12.50;67.46;101648.01;1662012;85;21357;-79
2021/09/08 06:13:27;;;;;;;22.00;12.73;;;;;;;12.75;67.44;101651.71;1661723;85;21491;-79
2021/09/08 06:15:54;;;;;;;20.35;12.58;;;;;;;13.05;67.53;101646.22;1650115;85;21656;-79
2021/09/08 06:18:20;;;;;;;23.90;13.08;;;;;;;13.45;67.61;101651.04;1662622;84;20941;-79
2021/09/08 06:20:46;;;;;;;19.10;11.70;;;;;;;13.84;67.57;101642.73;1654117;85;20969;-79
2021/09/08 06:23:12;;;;;;;14.60;11.60;;;;;;;14.27;67.58;101654.27;1662748;85;20928;-79
2021/09/08 06:25:39;;;;;;;18.05;11.95;;;;;;;14.67;67.61;101568.61;1655110;84;20943;-80
2021/09/08 06:28:05;;;;;;;20.08;11.35;;;;;;;15.08;67.73;101639.02;1663645;84;21105;-80
2021/09/08 06:30:31;;;;;;;15.05;11.10;;;;;;;15.51;67.54;101647.33;1661894;84;21096;-80
2021/09/08 06:33:04;;;;;;;15.35;10.95;;;;;;;15.92;67.45;101649.09;1650720;84;21115;-80
2021/09/08 06:35:30;;;;;;;20.37;12.58;;;;;;;16.32;67.41;101645.12;1661323;85;21442;-80
2021/09/08 06:37:56;;;;;;;24.02;12.58;;;;;;;16.73;67.36;101644.13;1656342;85;21102;-80
2021/09/08 06:40:24;;;;;;;13.95;10.98;;;;;;;17.11;67.34;101649.69;1667666;84;21106;-80
2021/09/08 06:42:50;;;;;;;13.80;10.55;;;;;;;17.50;67.36;101640.32;1660890;85;21069;-80
2021/09/08 06:45:17;;;;;;;14.53;11.15;;;;;;;17.89;67.29;101641.38;1669275;84;21100;-80
2021/09/08 06:47:46;;;;;;;15.88;11.12;;;;;;;18.23;67.12;101642.03;1653761;85;21060;-80
2021/09/08 06:50:12;;;;;;;16.17;10.87;;;;;;;18.58;67.10;101641.37;1661548;85;21083;-80
2021/09/08 06:52:39;;;;;;;16.70;11.70;;;;;;;18.90;67.04;101637.22;1661593;85;21120;-81
2021/09/08 06:55:06;;;;;;;15.25;11.20;;;;;;;19.28;67.04;101640.25;1660812;84;21044;-81
2021/09/08 06:57:33;;;;;;;17.35;10.80;;;;;;;19.64;66.98;101639.40;1662025;84;27103;-81
2021/09/08 06:59:59;;;;;;;13.85;11.12;;;;;;;19.94;66.76;101640.84;1666393;84;21550;-81
2021/09/08 07:02:25;;;;;;;17.55;10.63;;;;;;;20.18;66.79;101637.72;1665322;84;21399;-81
2021/09/08 07:04:58;;;;;;;18.45;11.68;;;;;;;20.45;66.80;101639.23;1661123;84;21077;-81
2021/09/08 07:07:24;;;;;;;15.60;12.13;;;;;;;20.71;66.69;101639.48;1661278;85;21044;-81
2021/09/08 07:09:50;;;;;;;15.93;12.40;;;;;;;20.98;66.76;101637.44;1662207;84;20979;-81
2021/09/08 07:12:16;;;;;;;16.62;12.47;;;;;;;21.27;66.53;101636.20;1667486;84;21116;-81
2021/09/08 07:14:42;;;;;;;16.80;11.83;;;;;;;21.52;66.56;101641.20;1669216;84;21557;-81
2021/09/08 07:17:10;;;;;;;25.05;19.07;;;;;;;21.80;66.39;101639.48;1661368;84;21555;-81
2021/09/08 07:19:37;;;;;;;41.88;27.45;;;;;;;21.98;66.32;101641.69;1662065;84;21051;-81
2021/09/08 07:22:03;;;;;;;41.83;28.33;;;;;;;22.15;66.28;101645.73;1665257;84;21467;-81
2021/09/08 07:24:31;;;;;;;20.62;16.12;;;;;;;22.39;66.32;101643.19;1668283;84;21048;-81
2021/09/08 07:26:57;;;;;;;30.43;22.67;;;;;;;22.68;66.28;101643.08;1666877;85;20899;-81
2021/09/08 07:29:24;;;;;;;31.45;19.57;;;;;;;22.98;66.35;101636.72;1663997;84;21075;-81
2021/09/08 07:31:52;;;;;;;30.35;21.80;;;;;;;23.35;66.49;101639.61;1665011;85;20922;-81
2021/09/08 07:34:18;;;;;;;27.58;19.27;;;;;;;23.78;66.66;101643.06;1663451;84;20945;-81
2021/09/08 07:36:45;;;;;;;22.50;16.17;;;;;;;24.26;66.75;101646.09;1661464;85;20862;-81
2021/09/08 07:39:11;;;;;;;22.05;16.97;;;;;;;24.69;66.26;101641.80;1667266;84;21374;-81
2021/09/08 07:41:37;;;;;;;17.20;12.40;;;;;;;25.02;65.78;101635.83;1675628;84;20917;-81
2021/09/08 07:44:03;;;;;;;21.23;12.30;;;;;;;25.30;64.95;101635.00;1711815;82;20902;-81
2021/09/08 07:46:29;;;;;;;17.48;12.25;;;;;;;25.49;64.29;101639.14;1709852;82;20895;-81
2021/09/08 07:48:58;;;;;;;15.10;11.93;;;;;;;25.57;63.91;101641.69;1712072;82;20915;-81
2021/09/08 07:51:24;;;;;;;17.87;12.63;;;;;;;25.55;63.62;101638.75;1707559;83;20950;-81
2021/09/08 07:53:50;;;;;;;14.90;12.30;;;;;;;25.33;63.36;101636.61;1711758;82;21547;-81
2021/09/08 07:56:16;;;;;;;15.63;12.60;;;;;;;25.12;63.35;101645.39;1708424;82;20927;-81
2021/09/08 07:58:42;;;;;;;15.85;12.68;;;;;;;25.03;63.31;101642.82;1705894;82;20897;-81
2021/09/08 08:01:08;;;;;;;18.57;13.23;;;;;;;24.96;63.15;101641.48;1709124;83;20965;-81
2021/09/08 08:03:34;;;;;;;22.00;13.90;;;;;;;24.90;63.02;101639.20;1709665;82;20914;-80
2021/09/08 08:06:00;;;;;;;13.73;12.20;;;;;;;24.89;62.89;101650.73;1710420;82;21665;-80
2021/09/08 08:08:26;;;;;;;18.23;12.17;;;;;;;24.90;62.71;101648.94;1707066;82;20886;-80
2021/09/08 08:10:52;;;;;;;19.93;12.03;;;;;;;24.97;62.67;101651.13;1714996;82;20923;-80
2021/09/08 08:13:18;;;;;;;14.70;12.13;;;;;;;25.04;62.41;101650.30;1708404;82;21054;-80
2021/09/08 08:15:44;;;;;;;16.02;11.25;;;;;;;25.05;62.20;101658.14;1705609;82;21406;-80
2021/09/08 08:18:10;;;;;;;13.83;11.00;;;;;;;25.00;61.92;101650.95;1694072;83;20938;-80
2021/09/08 08:20:37;;;;;;;12.98;10.78;;;;;;;25.05;61.67;101658.14;1676589;83;21674;-80
2021/09/08 08:23:03;;;;;;;15.90;10.90;;;;;;;25.08;61.43;101657.95;1706712;83;20863;-80
2021/09/08 08:25:30;;;;;;;13.60;11.10;;;;;;;25.02;61.34;101652.18;1682871;83;20949;-80
2021/09/08 08:28:01;;;;;;;17.92;11.22;;;;;;;24.97;61.21;101655.57;1706044;83;20957;-80
2021/09/08 08:30:27;;;;;;;13.93;10.28;;;;;;;24.71;60.75;101635.94;1701127;83;20906;-80
2021/09/08 08:32:53;;;;;;;13.75;10.13;;;;;;;24.71;60.75;101635.94;1718425;82;20898;-80
2021/09/08 08:35:20;;;;;;;10.75;9.58;;;;;;;24.85;60.59;101651.86;1711966;83;20975;-80
2021/09/08 08:37:49;;;;;;;;;;;;;;;24.99;60.27;101648.39;1715703;82;21064;-80
2021/09/08 08:40:15;;;;;;;15.15;9.23;;;;;;;25.21;59.42;101652.78;1717951;82;20182;-80
2021/09/08 08:42:41;;;;;;;12.93;10.08;;;;;;;25.58;60.81;101648.69;1723621;82;26881;-80
2021/09/08 08:45:08;;;;;;;11.20;10.00;;;;;;;26.08;61.00;101655.23;1710483;82;21646;-80
2021/09/08 08:47:36;;;;;;;11.85;8.93;;;;;;;26.68;60.91;101658.33;1688292;83;21069;-80
2021/09/08 08:50:13;;;;;;;11.75;9.40;;;;;;;27.36;60.40;101647.93;1711547;81;21049;-80
2021/09/08 08:52:35;;;;;;;11.83;10.00;;;;;;;28.03;59.77;101645.78;1721510;81;21026;-80
2021/09/08 08:55:06;;;;;;;17.52;10.43;;;;;;;28.63;58.81;101644.83;1720332;82;21009;-80
2021/09/08 08:57:32;;;;;;;10.63;9.10;;;;;;;28.98;57.78;101641.69;1718159;82;21044;-80
2021/09/08 08:59:58;;;;;;;13.07;9.50;;;;;;;28.03;56.93;101642.27;1719694;82;21627;-80
2021/09/08 09:02:29;;;;;;;13.83;9.48;;;;;;;27.07;57.16;101644.64;1716118;82;21132;-79
2021/09/08 09:04:59;;;;;;;13.35;10.60;;;;;;;26.43;57.11;101645.02;1713145;82;21457;-80
2021/09/08 09:07:36;;;;;;;15.25;10.45;;;;;;;25.88;56.88;101642.44;1716519;82;21445;-80
2021/09/08 09:10:09;;;;;;;19.60;9.80;;;;;;;25.43;56.82;101639.08;1720604;82;21083;-80
2021/09/08 09:12:38;;;;;;;18.27;10.93;;;;;;;25.11;56.64;101639.72;1699373;82;21086;-80
2021/09/08 09:15:09;;;;;;;18.65;10.10;;;;;;;24.84;56.50;101634.75;1715614;82;21056;-80
2021/09/08 09:17:37;;;;;;;14.93;10.25;;;;;;;24.61;56.34;101637.42;1719573;82;21083;-80
2021/09/08 09:20:11;;;;;;;16.27;10.70;;;;;;;24.40;56.17;101635.58;1714919;82;21080;-80
2021/09/08 09:22:48;;;;;;;14.15;10.90;;;;;;;24.23;56.00;101635.66;1703556;82;21129;-80
2021/09/08 09:25:21;;;;;;;16.20;9.38;;;;;;;24.04;55.83;101634.52;1715991;82;21095;-80
2021/09/08 09:27:55;;;;;;;11.38;10.18;;;;;;;23.90;55.71;101628.70;1717689;82;21108;-80
2021/09/08 09:30:25;;;;;;;9.73;8.40;;;;;;;23.80;55.58;101624.88;1708135;83;21114;-80
2021/09/08 09:32:55;;;;;;;11.57;9.60;;;;;;;23.71;55.50;101628.86;1718301;82;21058;-80
2021/09/08 09:35:25;;;;;;;17.05;11.30;;;;;;;23.67;55.38;101627.80;1699784;83;21079;-80
2021/09/08 09:38:02;;;;;;;14.70;11.20;;;;;;;23.58;55.20;101618.59;1711918;82;21055;-80
2021/09/08 09:40:33;;;;;;;13.83;10.50;;;;;;;23.43;55.06;101615.41;1694545;83;21530;-80
2021/09/08 09:43:07;;;;;;;14.60;11.00;;;;;;;23.37;55.16;101616.63;1721179;82;21063;-80
2021/09/08 09:45:47;;;;;;;10.58;9.48;;;;;;;23.39;55.02;101612.59;1718155;82;21111;-80
2021/09/08 09:48:14;;;;;;;12.58;9.90;;;;;;;23.37;54.88;101606.07;1723461;82;20977;-80
2021/09/08 09:50:46;;;;;;;14.58;9.40;;;;;;;23.35;54.78;101608.41;1727006;82;21021;-80
2021/09/08 09:53:12;;;;;;;12.03;9.78;;;;;;;23.32;54.77;101601.97;1727113;83;20950;-80
2021/09/08 09:55:39;;;;;;;15.10;9.73;;;;;;;23.35;54.65;101599.17;1729715;82;20964;-80
2021/09/08 09:58:05;;;;;;;12.00;9.50;;;;;;;23.36;54.66;101606.16;1608729;82;10000436;-80
2021/09/08 10:00:31;;;;;;;11.77;10.23;;;;;;;23.38;54.64;101597.22;1727059;81;26789;-80
2021/09/08 10:02:57;;;;;;;12.57;9.03;;;;;;;23.44;54.61;101594.69;1734660;81;20884;-80
2021/09/08 10:05:23;;;;;;;13.70;10.30;;;;;;;23.48;54.53;101595.38;1723403;82;21453;-80
2021/09/08 10:07:49;;;;;;;11.33;9.03;;;;;;;23.47;54.37;101585.28;1732503;81;26788;-80
2021/09/08 10:10:20;;;;;;;10.37;8.20;;;;;;;23.47;54.40;101584.42;1725571;82;20946;-80
2021/09/08 10:13:03;;;;;;;10.43;9.08;;;;;;;23.48;54.34;101583.02;1730636;82;21003;-80
2021/09/08 10:15:31;;;;;;;12.43;9.03;;;;;;;23.52;54.20;101583.24;1611290;81;10000721;-80
2021/09/08 10:18:10;;;;;;;13.58;8.43;;;;;;;23.55;54.23;101582.25;1731619;82;21063;-80
2021/09/08 10:20:37;;;;;;;12.93;9.33;;;;;;;23.57;54.18;101582.55;1730923;82;21042;-80
2021/09/08 10:23:13;;;;;;;13.00;9.60;;;;;;;23.61;54.05;101580.13;1723523;82;21115;-80
2021/09/08 10:25:49;;;;;;;9.50;8.60;;;;;;;23.62;54.05;101578.34;1699493;83;21056;-80
2021/09/08 10:28:18;;;;;;;11.97;8.68;;;;;;;23.62;53.95;101577.88;1730498;82;20906;-80
2021/09/08 10:30:46;;;;;;;11.33;8.60;;;;;;;23.63;53.96;101571.66;1730099;81;21540;-80
2021/09/08 10:33:14;;;;;;;12.58;8.70;;;;;;;23.63;53.88;101565.05;1708093;83;20933;-80
2021/09/08 10:35:42;;;;;;;13.20;8.40;;;;;;;23.64;53.85;101564.12;1697479;83;21075;-80
2021/09/08 10:38:15;;;;;;;11.80;8.00;;;;;;;23.61;53.76;101561.64;1729694;82;21270;-80
2021/09/08 10:40:44;;;;;;;9.08;7.83;;;;;;;23.59;53.72;101558.23;1710295;82;20941;-80
2021/09/08 10:43:11;;;;;;;11.55;7.87;;;;;;;23.60;53.73;101563.05;1711272;83;20931;-80
2021/09/08 10:45:51;;;;;;;12.58;8.55;;;;;;;23.65;53.69;101558.37;1711377;83;21082;-80
2021/09/08 10:48:43;;;;;;;9.53;8.55;;;;;;;23.67;53.59;101558.66;1709173;82;21095;-80
2021/09/08 10:51:35;;;;;;;11.65;8.98;;;;;;;23.67;53.50;101555.17;1707917;82;21135;-80
2021/09/08 10:54:05;;;;;;;11.18;8.73;;;;;;;23.67;53.52;101551.21;1716834;82;21482;-80
2021/09/08 10:56:46;;;;;;;10.75;9.68;;;;;;;23.61;53.39;101545.80;1710313;83;20981;-80
2021/09/08 10:59:13;;;;;;;10.78;9.58;;;;;;;23.62;53.46;101547.50;1712367;83;21375;-80
2021/09/08 11:01:41;;;;;;;10.75;9.25;;;;;;;23.63;53.35;101545.72;1715807;82;21571;-80
2021/09/08 11:04:15;;;;;;;11.10;9.43;;;;;;;23.63;53.28;101533.37;1714716;82;26923;-80
2021/09/08 11:06:45;;;;;;;10.15;8.88;;;;;;;23.64;53.29;101543.46;1715326;82;20988;-80
2021/09/08 11:09:16;;;;;;;9.98;8.98;;;;;;;23.60;53.22;101535.33;1715429;83;21016;-80
2021/09/08 11:11:57;;;;;;;12.78;10.15;;;;;;;23.62;53.24;101536.09;1715086;82;21116;-80
2021/09/08 11:14:48;;;;;;;11.33;9.83;;;;;;;23.63;53.15;101534.69;1709347;83;21033;-80
2021/09/08 11:17:21;;;;;;;12.65;9.88;;;;;;;23.63;53.11;101525.91;1712504;82;20915;-80
2021/09/08 11:19:52;;;;;;;10.90;9.08;;;;;;;23.61;53.04;101522.04;1711011;82;20934;-80
2021/09/08 11:22:19;;;;;;;11.57;8.95;;;;;;;23.59;53.04;101528.34;1700943;82;20934;-80